Time;durP1;ratioP1;P1;durP2;ratioP2;P2;SDS_P1;SDS_P2;PMS_P1;PMS_P2;Temp;Humidity;BMP_temperature;BMP_pressure;BME280_temperature;BME280_humidity;BME280_pressure;Samples;Min_cycle;Max_cycle;Signal;HPM_P1;HPM_P2
2021/08/18 00:00:52;;;;;;;6.15;2.67;;;14.50;99.90;;;;;;5098168;28;20046;-66
2021/08/18 00:03:18;;;;;;;5.47;2.80;;;14.50;99.90;;;;;;5098363;28;20058;-67
2021/08/18 00:05:44;;;;;;;4.68;2.65;;;14.50;99.90;;;;;;5099510;28;20489;-67
2021/08/18 00:08:11;;;;;;;5.75;3.08;;;14.50;99.90;;;;;;5096934;28;20122;-67
2021/08/18 00:10:37;;;;;;;5.35;3.70;;;14.60;99.90;;;;;;5097253;28;20040;-67
2021/08/18 00:13:04;;;;;;;4.80;2.85;;;14.50;99.90;;;;;;5100221;28;20122;-67
2021/08/18 00:15:30;;;;;;;6.45;3.28;;;14.60;99.90;;;;;;5097010;28;20078;-67
2021/08/18 00:18:00;;;;;;;5.15;3.33;;;14.60;99.90;;;;;;5099984;28;20043;-66
2021/08/18 00:20:27;;;;;;;4.82;3.38;;;14.60;99.90;;;;;;5096207;28;20502;-66
2021/08/18 00:22:54;;;;;;;3.50;3.17;;;14.60;99.90;;;;;;5098915;28;20162;-66
2021/08/18 00:25:20;;;;;;;5.82;2.78;;;14.70;99.90;;;;;;5100243;28;20038;-67
2021/08/18 00:27:46;;;;;;;5.05;2.90;;;14.60;99.90;;;;;;5094693;28;20429;-67
2021/08/18 00:30:12;;;;;;;5.25;2.90;;;14.70;99.90;;;;;;5096539;27;20379;-67
2021/08/18 00:32:37;;;;;;;3.55;2.92;;;14.70;99.90;;;;;;5096898;28;20051;-67
2021/08/18 00:35:04;;;;;;;4.43;2.80;;;14.70;99.90;;;;;;5095616;28;20048;-67
2021/08/18 00:37:30;;;;;;;4.53;3.03;;;14.70;99.90;;;;;;5093908;28;20351;-67
2021/08/18 00:39:56;;;;;;;4.30;3.30;;;14.80;99.90;;;;;;5097330;27;20081;-67
2021/08/18 00:42:22;;;;;;;8.55;3.30;;;14.70;99.90;;;;;;5096920;28;20090;-67
2021/08/18 00:44:47;;;;;;;6.15;3.00;;;14.70;99.90;;;;;;5096489;28;20040;-67
2021/08/18 00:47:13;;;;;;;5.85;3.20;;;14.80;99.90;;;;;;5095592;28;20047;-67
2021/08/18 00:49:39;;;;;;;5.38;3.13;;;14.70;99.90;;;;;;5094613;28;20056;-67
2021/08/18 00:52:06;;;;;;;5.38;3.15;;;14.80;99.90;;;;;;5094947;28;20043;-67
2021/08/18 00:54:32;;;;;;;9.15;3.53;;;14.80;99.90;;;;;;5095881;28;20036;-67
2021/08/18 00:57:00;;;;;;;7.25;3.25;;;14.80;99.90;;;;;;5099034;28;20028;-67
2021/08/18 00:59:26;;;;;;;4.22;3.10;;;14.80;99.90;;;;;;5095775;28;20078;-66
2021/08/18 01:01:52;;;;;;;6.07;3.35;;;14.80;99.90;;;;;;5098156;28;20068;-67
2021/08/18 01:04:18;;;;;;;7.43;3.38;;;14.80;99.90;;;;;;5096942;28;20085;-67
2021/08/18 01:06:45;;;;;;;5.03;3.58;;;14.80;99.90;;;;;;5098415;28;20043;-67
2021/08/18 01:09:14;;;;;;;5.43;3.20;;;14.80;99.90;;;;;;5096178;27;20364;-67
2021/08/18 01:11:42;;;;;;;6.35;3.50;;;14.80;99.90;;;;;;5095891;28;20043;-67
2021/08/18 01:14:08;;;;;;;5.72;3.45;;;14.70;99.90;;;;;;5097353;28;20039;-67
2021/08/18 01:16:39;;;;;;;6.45;3.22;;;14.80;99.90;;;;;;5094884;28;20446;-67
2021/08/18 01:19:06;;;;;;;4.90;3.78;;;14.70;99.90;;;;;;5097110;28;20040;-67
2021/08/18 01:21:33;;;;;;;7.78;3.28;;;14.70;99.90;;;;;;5094010;28;20470;-67
2021/08/18 01:24:00;;;;;;;3.83;3.30;;;14.70;99.90;;;;;;5095573;28;20036;-67
2021/08/18 01:26:25;;;;;;;7.53;3.83;;;14.60;99.90;;;;;;5094151;28;20608;-67
2021/08/18 01:28:51;;;;;;;6.38;3.72;;;14.60;99.90;;;;;;5097853;27;20046;-66
2021/08/18 01:31:18;;;;;;;6.18;3.22;;;14.60;99.90;;;;;;5098468;27;20469;-66
2021/08/18 01:33:44;;;;;;;6.93;3.40;;;14.50;99.90;;;;;;5096391;28;20071;-66
2021/08/18 01:36:10;;;;;;;7.95;3.80;;;14.50;99.90;;;;;;5096071;27;20043;-66
2021/08/18 01:38:37;;;;;;;5.90;3.63;;;14.50;99.90;;;;;;5093793;27;20036;-67
2021/08/18 01:41:02;;;;;;;7.30;3.83;;;14.50;99.90;;;;;;5096369;28;20412;-67
2021/08/18 01:43:29;;;;;;;5.13;3.50;;;14.50;99.90;;;;;;5094872;28;20043;-66
2021/08/18 01:45:54;;;;;;;5.50;3.25;;;14.50;99.90;;;;;;5095786;28;20036;-67
2021/08/18 01:48:23;;;;;;;5.85;3.58;;;14.40;99.90;;;;;;5095508;28;20126;-67
2021/08/18 01:50:51;;;;;;;6.05;4.07;;;14.40;99.90;;;;;;5096587;28;20067;-67
2021/08/18 01:53:24;;;;;;;6.05;3.55;;;14.50;99.90;;;;;;5097094;28;20057;-67
2021/08/18 01:55:49;;;;;;;7.72;3.50;;;14.50;99.90;;;;;;5096730;28;20040;-67
2021/08/18 01:58:15;;;;;;;7.82;4.28;;;14.50;99.90;;;;;;5097107;28;20043;-67
2021/08/18 02:00:41;;;;;;;6.72;3.55;;;14.50;99.90;;;;;;5095988;28;20035;-67
2021/08/18 02:03:07;;;;;;;4.88;3.40;;;14.50;99.90;;;;;;5095436;28;20048;-66
2021/08/18 02:05:33;;;;;;;7.50;3.65;;;14.50;99.90;;;;;;5095214;27;20689;-67
2021/08/18 02:07:59;;;;;;;4.85;3.47;;;14.60;99.90;;;;;;5095938;28;20044;-67
2021/08/18 02:10:25;;;;;;;7.70;3.70;;;14.60;99.90;;;;;;5094505;27;20075;-67
2021/08/18 02:12:51;;;;;;;8.60;3.83;;;14.60;99.90;;;;;;5122741;27;20492;-66
2021/08/18 02:15:20;;;;;;;4.35;3.30;;;14.60;99.90;;;;;;5094796;28;20047;-67
2021/08/18 02:17:46;;;;;;;5.18;3.75;;;14.60;99.90;;;;;;5096240;27;20035;-67
2021/08/18 02:20:16;;;;;;;6.68;3.22;;;14.70;99.90;;;;;;5096005;28;20513;-66
2021/08/18 02:22:42;;;;;;;8.85;3.65;;;14.70;99.90;;;;;;5097041;28;20058;-67
2021/08/18 02:25:09;;;;;;;8.18;3.50;;;14.70;99.90;;;;;;5101547;28;20142;-67
2021/08/18 02:27:34;;;;;;;7.20;3.53;;;14.70;99.90;;;;;;5097851;28;20123;-67
2021/08/18 02:30:00;;;;;;;3.83;2.90;;;14.80;99.90;;;;;;5103407;27;20111;-67
2021/08/18 02:32:26;;;;;;;5.75;3.38;;;14.80;99.90;;;;;;5100838;28;20485;-66
2021/08/18 02:34:52;;;;;;;4.38;3.38;;;14.80;99.90;;;;;;5104740;28;20032;-66
2021/08/18 02:37:17;;;;;;;7.05;3.38;;;14.80;99.90;;;;;;5103720;28;20481;-67
2021/08/18 02:39:43;;;;;;;3.97;2.85;;;14.80;99.90;;;;;;5101073;28;20064;-66
2021/08/18 02:42:09;;;;;;;5.43;3.53;;;14.80;99.90;;;;;;5102577;28;20057;-66
2021/08/18 02:44:35;;;;;;;9.60;3.42;;;14.80;99.90;;;;;;5103274;28;20112;-66
2021/08/18 02:47:01;;;;;;;4.95;3.58;;;14.80;99.90;;;;;;5102112;28;20043;-66
2021/08/18 02:49:27;;;;;;;9.48;3.78;;;14.80;99.90;;;;;;5101630;28;20477;-66
2021/08/18 02:51:53;;;;;;;5.57;3.63;;;14.80;99.90;;;;;;5098932;28;20121;-66
2021/08/18 02:54:19;;;;;;;10.07;3.78;;;14.80;99.90;;;;;;5105914;28;20462;-66
2021/08/18 02:56:44;;;;;;;7.03;3.70;;;14.80;99.90;;;;;;5105377;28;20028;-67
2021/08/18 02:59:11;;;;;;;5.97;3.17;;;14.90;99.90;;;;;;5107014;28;20589;-66
2021/08/18 03:01:38;;;;;;;7.78;3.83;;;14.90;99.90;;;;;;5099457;28;20040;-66
2021/08/18 03:04:08;;;;;;;8.85;3.67;;;14.90;99.90;;;;;;5098781;28;20047;-67
2021/08/18 03:06:33;;;;;;;6.55;3.70;;;14.90;99.90;;;;;;5103260;28;20035;-67
2021/08/18 03:08:59;;;;;;;7.18;3.83;;;14.90;99.90;;;;;;5105534;28;20039;-66
2021/08/18 03:11:25;;;;;;;6.57;3.72;;;14.80;99.90;;;;;;5104689;28;20040;-66
2021/08/18 03:13:51;;;;;;;9.75;3.78;;;14.90;99.90;;;;;;5099777;28;20039;-66
2021/08/18 03:16:16;;;;;;;9.40;3.80;;;14.90;99.90;;;;;;5100541;28;20107;-66
2021/08/18 03:18:42;;;;;;;4.75;3.38;;;14.90;99.90;;;;;;5106024;27;20046;-66
2021/08/18 03:21:07;;;;;;;6.20;3.60;;;14.90;99.90;;;;;;5109543;28;20075;-66
2021/08/18 03:23:33;;;;;;;7.20;3.40;;;14.90;99.90;;;;;;5104179;28;20413;-67
2021/08/18 03:25:59;;;;;;;5.25;3.30;;;14.90;99.90;;;;;;5106236;28;20546;-67
2021/08/18 03:28:25;;;;;;;6.07;3.55;;;14.90;99.90;;;;;;5101753;28;20043;-67
2021/08/18 03:30:50;;;;;;;7.78;3.67;;;14.90;99.90;;;;;;5103553;28;20535;-67
2021/08/18 03:33:17;;;;;;;5.80;3.85;;;14.90;99.90;;;;;;5105659;28;20547;-67
2021/08/18 03:35:42;;;;;;;5.38;3.50;;;15.00;99.90;;;;;;5103133;28;20036;-67
2021/08/18 03:38:08;;;;;;;7.45;4.00;;;15.00;99.90;;;;;;5105967;28;20047;-67
2021/08/18 03:40:34;;;;;;;7.47;4.03;;;15.00;99.90;;;;;;5104979;28;20409;-67
2021/08/18 03:43:01;;;;;;;7.38;4.30;;;14.90;99.90;;;;;;5108504;28;20032;-66
2021/08/18 03:45:28;;;;;;;7.25;3.92;;;15.00;99.90;;;;;;5104964;28;20555;-67
2021/08/18 03:47:53;;;;;;;7.95;4.45;;;15.00;99.90;;;;;;5103771;28;20047;-66
2021/08/18 03:50:19;;;;;;;6.45;4.43;;;15.00;99.90;;;;;;5106009;28;20035;-66
2021/08/18 03:52:45;;;;;;;4.43;3.20;;;15.00;99.90;;;;;;5107471;27;20036;-66
2021/08/18 03:55:13;;;;;;;9.73;4.10;;;15.00;99.90;;;;;;5110602;28;20042;-66
2021/08/18 03:57:39;;;;;;;8.82;3.47;;;15.10;99.90;;;;;;5110902;28;20032;-67
2021/08/18 04:00:05;;;;;;;7.45;4.00;;;15.00;99.90;;;;;;5105650;28;20036;-66
2021/08/18 04:02:32;;;;;;;9.20;4.15;;;15.10;99.90;;;;;;5103203;28;20081;-66
2021/08/18 04:04:58;;;;;;;10.95;3.60;;;15.10;99.90;;;;;;5104517;28;20040;-66
2021/08/18 04:07:27;;;;;;;6.50;3.33;;;15.10;99.90;;;;;;5104730;28;20738;-67
2021/08/18 04:09:53;;;;;;;5.75;3.38;;;15.10;99.90;;;;;;5107355;28;20145;-67
2021/08/18 04:12:19;;;;;;;6.03;3.38;;;15.10;99.90;;;;;;5105410;28;20035;-66
2021/08/18 04:14:47;;;;;;;6.40;4.05;;;15.10;99.90;;;;;;5103997;28;20042;-67
2021/08/18 04:17:13;;;;;;;7.65;4.10;;;15.10;99.90;;;;;;5106468;28;20048;-67
2021/08/18 04:19:38;;;;;;;8.27;3.40;;;15.10;99.90;;;;;;5103228;28;20767;-66
2021/08/18 04:22:05;;;;;;;6.47;3.92;;;15.10;99.90;;;;;;5103056;28;20490;-66
2021/08/18 04:24:31;;;;;;;7.85;3.85;;;15.10;99.90;;;;;;5104428;28;20063;-67
2021/08/18 04:26:56;;;;;;;5.65;3.35;;;15.10;99.90;;;;;;5104239;28;20064;-67
2021/08/18 04:29:22;;;;;;;5.60;3.38;;;15.10;99.90;;;;;;5104293;28;20040;-67
2021/08/18 04:31:48;;;;;;;9.18;3.65;;;15.10;99.90;;;;;;5102058;28;20039;-67
2021/08/18 04:34:14;;;;;;;5.35;2.80;;;15.10;99.90;;;;;;5103058;27;20040;-67
2021/08/18 04:36:40;;;;;;;8.20;3.42;;;15.10;99.90;;;;;;5104229;28;20126;-67
2021/08/18 04:39:05;;;;;;;6.90;2.75;;;15.10;99.90;;;;;;5109382;28;20055;-67
2021/08/18 04:41:31;;;;;;;6.68;2.83;;;15.10;99.90;;;;;;5107516;28;20036;-67
2021/08/18 04:44:03;;;;;;;6.22;3.25;;;15.20;99.90;;;;;;5106789;28;20065;-66
2021/08/18 04:46:29;;;;;;;5.75;3.15;;;15.10;99.90;;;;;;5107338;27;20051;-66
2021/08/18 04:48:54;;;;;;;11.15;3.40;;;15.20;99.90;;;;;;5105490;28;20058;-67
2021/08/18 04:51:20;;;;;;;5.50;3.30;;;15.20;99.90;;;;;;5103826;28;20039;-66
2021/08/18 04:53:47;;;;;;;6.07;3.38;;;15.20;99.90;;;;;;5110048;28;20050;-67
2021/08/18 04:56:13;;;;;;;7.18;3.22;;;15.20;99.90;;;;;;5108118;28;20130;-67
2021/08/18 04:58:42;;;;;;;7.47;3.60;;;15.20;99.90;;;;;;5103446;28;20535;-67
2021/08/18 05:01:08;;;;;;;7.80;2.85;;;15.20;99.90;;;;;;5104066;28;20032;-67
2021/08/18 05:03:34;;;;;;;7.28;3.35;;;15.20;99.90;;;;;;5104497;28;20040;-67
2021/08/18 05:05:59;;;;;;;4.47;3.15;;;15.20;99.90;;;;;;5103897;28;20028;-67
2021/08/18 05:08:25;;;;;;;5.20;3.15;;;15.20;99.90;;;;;;5104395;27;20032;-67
2021/08/18 05:10:51;;;;;;;6.30;3.08;;;15.20;99.90;;;;;;5098790;28;20043;-67
2021/08/18 05:13:16;;;;;;;4.72;3.13;;;15.20;99.90;;;;;;5096536;28;20039;-67
2021/08/18 05:15:42;;;;;;;7.90;3.95;;;15.30;99.90;;;;;;5094927;28;20036;-67
2021/08/18 05:18:08;;;;;;;7.75;3.25;;;15.30;99.90;;;;;;5096925;28;20585;-67
2021/08/18 05:20:33;;;;;;;9.88;3.83;;;15.30;99.90;;;;;;5099329;28;20059;-67
2021/08/18 05:22:59;;;;;;;4.65;3.30;;;15.30;99.90;;;;;;5095314;28;20046;-67
2021/08/18 05:25:45;;;;;;;5.93;3.00;;;15.40;99.90;;;;;;5094503;28;20036;-66
2021/08/18 05:28:13;;;;;;;9.25;3.50;;;15.40;99.90;;;;;;5097998;28;20059;-66
2021/08/18 05:30:56;;;;;;;5.38;3.20;;;15.40;99.90;;;;;;5096396;28;20055;-66
2021/08/18 05:33:38;;;;;;;10.45;3.83;;;15.40;99.90;;;;;;5094609;28;20932;-67
2021/08/18 05:36:06;;;;;;;8.40;4.15;;;15.40;99.90;;;;;;5098870;28;20088;-67
2021/08/18 05:38:32;;;;;;;8.90;3.20;;;15.40;99.90;;;;;;5096301;28;20124;-67
2021/08/18 05:41:02;;;;;;;7.45;3.20;;;15.40;99.90;;;;;;5094276;28;20042;-66
2021/08/18 05:43:29;;;;;;;7.80;3.65;;;15.40;99.90;;;;;;5094665;28;20036;-66
2021/08/18 05:45:54;;;;;;;7.53;3.45;;;15.40;99.90;;;;;;5097298;27;20043;-66
2021/08/18 05:48:20;;;;;;;4.80;2.90;;;15.50;99.90;;;;;;5094271;28;20032;-66
2021/08/18 05:50:46;;;;;;;5.82;2.90;;;15.40;99.90;;;;;;5099689;27;20042;-66
2021/08/18 05:53:18;;;;;;;3.90;2.15;;;15.50;99.90;;;;;;5094330;28;20044;-66
2021/08/18 05:55:48;;;;;;;3.88;1.92;;;15.50;99.90;;;;;;5093553;28;20421;-66
2021/08/18 05:58:14;;;;;;;4.60;1.90;;;15.50;99.90;;;;;;5094420;28;20040;-66
2021/08/18 06:00:40;;;;;;;4.63;2.13;;;15.50;99.90;;;;;;5096057;28;20032;-66
2021/08/18 06:03:06;;;;;;;3.08;2.03;;;15.50;99.90;;;;;;5095780;28;20040;-66
2021/08/18 06:05:31;;;;;;;5.65;1.98;;;15.50;99.90;;;;;;5097533;28;20170;-66
2021/08/18 06:07:57;;;;;;;3.45;1.77;;;15.50;99.90;;;;;;5092492;28;20475;-66
2021/08/18 06:10:23;;;;;;;4.20;1.70;;;15.60;99.90;;;;;;5096960;28;20036;-66
2021/08/18 06:12:49;;;;;;;3.95;1.90;;;15.40;99.90;;;;;;5098888;28;20027;-66
2021/08/18 06:15:15;;;;;;;2.53;1.80;;;15.50;99.90;;;;;;5091024;28;20048;-65
2021/08/18 06:17:41;;;;;;;2.67;1.70;;;15.50;99.90;;;;;;5094799;28;20788;-67
2021/08/18 06:20:07;;;;;;;2.20;1.45;;;15.50;99.90;;;;;;5095185;28;20049;-67
2021/08/18 06:22:34;;;;;;;3.28;1.33;;;15.50;99.90;;;;;;5094877;28;20067;-67
2021/08/18 06:25:03;;;;;;;2.22;1.80;;;15.50;99.90;;;;;;5101991;28;20485;-67
2021/08/18 06:27:30;;;;;;;2.60;1.80;;;15.60;99.90;;;;;;5094376;28;20424;-66
2021/08/18 06:29:56;;;;;;;4.25;1.92;;;15.50;99.90;;;;;;5094550;28;20039;-67
2021/08/18 06:32:22;;;;;;;2.90;1.85;;;15.60;99.90;;;;;;5093405;28;20035;-67
2021/08/18 06:34:49;;;;;;;4.63;1.98;;;15.60;99.90;;;;;;5097298;27;20472;-67
2021/08/18 06:37:15;;;;;;;6.30;2.30;;;15.60;99.90;;;;;;5096141;28;20047;-67
2021/08/18 06:39:41;;;;;;;2.83;2.00;;;15.60;99.90;;;;;;5093037;28;20042;-67
2021/08/18 06:42:07;;;;;;;3.17;2.13;;;15.70;99.90;;;;;;5095937;28;20040;-67
2021/08/18 06:44:33;;;;;;;4.05;2.53;;;15.70;99.90;;;;;;5094422;28;20036;-67
2021/08/18 06:46:59;;;;;;;3.78;2.40;;;15.80;99.90;;;;;;5093706;28;20032;-67
2021/08/18 06:49:25;;;;;;;7.00;2.67;;;15.90;99.90;;;;;;5096944;28;20043;-67
2021/08/18 06:51:51;;;;;;;4.90;2.67;;;15.90;99.90;;;;;;5095304;28;20044;-67
2021/08/18 06:54:17;;;;;;;4.20;2.03;;;16.00;99.90;;;;;;5096879;28;20545;-67
2021/08/18 06:56:43;;;;;;;4.53;2.70;;;16.10;99.90;;;;;;5093085;28;20421;-67
2021/08/18 06:59:08;;;;;;;4.53;2.58;;;16.10;99.90;;;;;;5093956;28;20631;-67
2021/08/18 07:01:34;;;;;;;5.00;2.40;;;16.20;99.90;;;;;;5096818;28;20043;-67
2021/08/18 07:04:02;;;;;;;4.50;1.83;;;16.20;99.90;;;;;;5091970;28;20032;-67
2021/08/18 07:06:27;;;;;;;5.80;2.30;;;16.30;99.90;;;;;;5095745;28;20088;-67
2021/08/18 07:08:53;;;;;;;6.40;2.95;;;16.40;99.90;;;;;;5097991;28;20052;-67
2021/08/18 07:11:19;;;;;;;6.22;2.60;;;16.50;99.90;;;;;;5097362;28;20035;-67
2021/08/18 07:13:45;;;;;;;7.82;2.42;;;16.50;99.90;;;;;;5094720;28;20473;-67
2021/08/18 07:16:11;;;;;;;6.03;2.15;;;16.60;99.90;;;;;;5095167;28;20088;-67
2021/08/18 07:18:36;;;;;;;6.25;2.60;;;16.70;99.90;;;;;;5094877;28;20065;-67
2021/08/18 07:21:02;;;;;;;4.43;2.65;;;16.70;99.90;;;;;;5126191;27;20043;-67
2021/08/18 07:23:28;;;;;;;9.52;4.22;;;16.70;99.90;;;;;;5095667;28;20154;-67
2021/08/18 07:25:53;;;;;;;7.80;2.63;;;16.80;99.90;;;;;;5092035;28;20035;-68
2021/08/18 07:28:19;;;;;;;7.30;3.10;;;16.80;99.90;;;;;;5093809;28;20043;-66
2021/08/18 07:30:44;;;;;;;5.32;2.50;;;16.80;99.90;;;;;;5091735;28;20089;-66
2021/08/18 07:33:10;;;;;;;5.25;3.28;;;16.80;99.90;;;;;;5094258;28;20078;-66
2021/08/18 07:35:36;;;;;;;5.70;2.92;;;16.90;99.90;;;;;;5092146;28;20032;-66
2021/08/18 07:38:02;;;;;;;6.05;2.95;;;16.90;99.90;;;;;;5092367;28;20038;-66
2021/08/18 07:40:27;;;;;;;7.57;2.90;;;17.00;99.90;;;;;;5093874;28;20032;-66
2021/08/18 07:42:55;;;;;;;8.60;3.33;;;17.10;99.90;;;;;;5091372;28;20050;-66
2021/08/18 07:45:21;;;;;;;6.10;2.90;;;17.10;99.90;;;;;;5094846;28;20035;-66
2021/08/18 07:47:46;;;;;;;6.85;3.40;;;17.10;99.90;;;;;;5094756;28;20039;-66
2021/08/18 07:50:13;;;;;;;6.85;3.65;;;17.20;99.90;;;;;;5091463;28;20078;-66
2021/08/18 07:52:38;;;;;;;11.23;3.88;;;17.20;99.90;;;;;;5095658;28;20474;-66
2021/08/18 07:55:06;;;;;;;8.20;3.40;;;17.30;99.90;;;;;;5094733;28;20042;-66
2021/08/18 07:57:34;;;;;;;7.45;3.85;;;17.30;99.90;;;;;;5092559;28;20562;-66
2021/08/18 08:00:01;;;;;;;4.20;3.20;;;17.30;99.90;;;;;;5094251;28;20494;-66
2021/08/18 08:02:27;;;;;;;6.88;4.05;;;17.30;99.90;;;;;;5094881;28;20032;-66
2021/08/18 08:04:52;;;;;;;6.78;3.47;;;17.30;99.90;;;;;;5098532;28;20850;-66
2021/08/18 08:07:18;;;;;;;6.07;2.92;;;17.40;99.90;;;;;;5099350;28;20039;-66
2021/08/18 08:09:44;;;;;;;5.55;2.40;;;17.30;99.90;;;;;;5101823;28;20032;-66
2021/08/18 08:12:09;;;;;;;6.72;2.63;;;17.30;99.90;;;;;;5095737;27;20044;-66
2021/08/18 08:14:35;;;;;;;6.95;3.30;;;17.30;99.90;;;;;;5097427;28;20107;-66
2021/08/18 08:17:01;;;;;;;9.98;3.10;;;17.30;99.90;;;;;;5099390;28;20063;-66
2021/08/18 08:19:26;;;;;;;8.50;2.65;;;17.40;99.90;;;;;;5098686;28;20043;-66
2021/08/18 08:21:52;;;;;;;3.80;2.40;;;17.30;99.90;;;;;;5095022;28;20032;-66
2021/08/18 08:24:18;;;;;;;5.80;2.42;;;17.40;99.90;;;;;;5095336;28;20039;-66
2021/08/18 08:26:43;;;;;;;7.22;2.95;;;17.40;99.90;;;;;;5099859;28;20104;-66
2021/08/18 08:29:09;;;;;;;6.70;2.40;;;17.40;99.90;;;;;;5098815;28;20036;-66
2021/08/18 08:31:36;;;;;;;6.72;2.50;;;17.50;99.90;;;;;;5096755;28;20429;-66
2021/08/18 08:34:05;;;;;;;5.30;2.08;;;17.50;99.90;;;;;;5096935;28;20071;-66
2021/08/18 08:36:30;;;;;;;5.68;2.50;;;17.60;99.90;;;;;;5097493;28;20042;-66
2021/08/18 08:38:56;;;;;;;5.88;2.20;;;17.60;99.90;;;;;;5095940;28;20393;-66
2021/08/18 08:41:22;;;;;;;3.00;1.67;;;17.70;99.90;;;;;;5095361;28;20047;-66
2021/08/18 08:43:47;;;;;;;7.88;2.00;;;17.70;99.90;;;;;;5095385;28;20051;-66
2021/08/18 08:46:13;;;;;;;2.47;1.63;;;17.80;99.90;;;;;;5129933;27;20046;-66
2021/08/18 08:48:40;;;;;;;2.60;1.85;;;17.80;99.90;;;;;;5094713;28;20070;-66
2021/08/18 08:51:07;;;;;;;5.35;1.50;;;17.90;99.90;;;;;;5099516;28;20749;-66
2021/08/18 08:53:34;;;;;;;4.70;1.90;;;18.00;99.90;;;;;;5094300;28;20058;-66
2021/08/18 08:55:59;;;;;;;4.70;1.77;;;18.10;99.90;;;;;;5096701;28;20081;-66
2021/08/18 08:58:25;;;;;;;2.78;1.73;;;18.20;99.90;;;;;;5097657;28;20440;-66
2021/08/18 09:00:52;;;;;;;3.78;1.73;;;18.30;99.90;;;;;;5098335;28;20035;-66
2021/08/18 09:03:22;;;;;;;3.65;1.58;;;18.40;99.90;;;;;;5096472;28;20089;-66
2021/08/18 09:05:48;;;;;;;3.85;1.55;;;18.40;99.90;;;;;;5096663;28;20036;-66
2021/08/18 09:08:19;;;;;;;5.35;1.77;;;18.50;99.90;;;;;;5098771;28;20043;-66
2021/08/18 09:11:05;;;;;;;4.07;1.98;;;18.50;99.90;;;;;;5098284;27;20389;-66
2021/08/18 09:13:52;;;;;;;3.20;1.70;;;18.50;99.90;;;;;;5097394;28;20390;-66
2021/08/18 09:16:21;;;;;;;6.57;1.85;;;18.40;99.90;;;;;;5095797;28;20134;-66
2021/08/18 09:18:49;;;;;;;3.90;1.85;;;18.50;99.90;;;;;;5097954;28;20121;-66
2021/08/18 09:21:30;;;;;;;2.85;1.45;;;18.50;99.90;;;;;;5095360;28;20442;-66
2021/08/18 09:24:11;;;;;;;3.80;1.83;;;18.50;99.90;;;;;;5099275;28;20063;-66
2021/08/18 09:26:48;;;;;;;3.72;1.65;;;18.50;99.90;;;;;;5098630;28;20507;-66
2021/08/18 09:29:27;;;;;;;4.00;1.88;;;18.50;99.90;;;;;;5094327;28;20047;-66
2021/08/18 09:31:53;;;;;;;6.22;1.88;;;18.50;99.90;;;;;;5096185;28;20051;-66
2021/08/18 09:34:19;;;;;;;3.67;1.80;;;18.60;99.90;;;;;;5097511;28;20035;-66
2021/08/18 09:36:45;;;;;;;3.60;1.77;;;18.60;99.90;;;;;;5095172;28;20486;-66
2021/08/18 09:39:22;;;;;;;5.57;2.08;;;18.60;99.90;;;;;;5095032;28;20051;-66
2021/08/18 09:41:49;;;;;;;5.43;2.17;;;18.60;99.90;;;;;;5091444;28;20035;-66
2021/08/18 09:44:15;;;;;;;2.47;1.88;;;18.60;99.90;;;;;;5095419;28;20044;-66
2021/08/18 09:46:41;;;;;;;4.68;1.50;;;18.70;99.90;;;;;;5093943;27;20043;-66
2021/08/18 09:49:08;;;;;;;3.20;1.95;;;18.60;99.90;;;;;;5095366;28;20481;-66
2021/08/18 09:51:35;;;;;;;4.95;1.98;;;18.70;99.90;;;;;;5094944;28;20035;-66
2021/08/18 09:54:14;;;;;;;4.68;2.13;;;18.70;99.90;;;;;;5096576;28;20036;-66
2021/08/18 09:56:46;;;;;;;5.60;2.08;;;18.70;99.90;;;;;;5095114;28;20035;-66
2021/08/18 09:59:12;;;;;;;5.18;2.55;;;18.70;99.90;;;;;;5096013;28;20036;-66
2021/08/18 10:01:39;;;;;;;2.75;1.98;;;18.70;99.90;;;;;;5093699;28;20462;-66
2021/08/18 10:04:06;;;;;;;7.40;2.35;;;18.70;99.90;;;;;;5097363;28;20705;-66
2021/08/18 10:06:32;;;;;;;3.35;2.22;;;18.70;99.90;;;;;;5094596;27;20043;-66
2021/08/18 10:08:58;;;;;;;4.45;1.95;;;18.80;99.90;;;;;;5094386;28;20405;-66
2021/08/18 10:11:25;;;;;;;3.58;2.10;;;18.70;99.90;;;;;;5091376;28;20090;-66
2021/08/18 10:13:52;;;;;;;3.90;1.95;;;18.80;99.90;;;;;;5097160;28;20075;-66
2021/08/18 10:16:19;;;;;;;5.38;2.00;;;18.80;99.90;;;;;;5096087;28;20046;-66
2021/08/18 10:18:47;;;;;;;4.55;1.98;;;18.80;99.90;;;;;;5096756;28;20039;-66
2021/08/18 10:21:31;;;;;;;4.63;1.90;;;18.80;99.90;;;;;;5096429;28;20485;-66
2021/08/18 10:24:00;;;;;;;4.25;2.20;;;18.90;99.90;;;;;;5092631;28;20078;-66
2021/08/18 10:26:35;;;;;;;3.53;2.22;;;18.90;99.90;;;;;;5093535;28;20568;-66
2021/08/18 10:29:04;;;;;;;5.53;2.35;;;18.90;99.90;;;;;;5099617;28;20810;-66
2021/08/18 10:31:45;;;;;;;6.03;2.00;;;19.00;99.90;;;;;;5129539;27;20044;-66
2021/08/18 10:34:23;;;;;;;7.60;2.35;;;19.10;99.90;;;;;;5097048;28;20089;-66
2021/08/18 10:36:53;;;;;;;4.07;2.40;;;19.10;99.90;;;;;;5104954;28;20536;-66
2021/08/18 10:39:21;;;;;;;4.22;1.88;;;19.20;99.90;;;;;;5095360;28;20040;-66
2021/08/18 10:42:01;;;;;;;2.45;2.22;;;19.20;99.90;;;;;;5094290;28;20047;-66
2021/08/18 10:44:38;;;;;;;6.07;2.28;;;19.30;99.90;;;;;;5096339;28;20059;-66
2021/08/18 10:47:19;;;;;;;4.45;1.95;;;19.40;99.90;;;;;;5093656;28;20040;-66
2021/08/18 10:49:50;;;;;;;5.07;1.77;;;19.50;99.90;;;;;;5094684;28;20036;-66
2021/08/18 10:52:28;;;;;;;4.28;1.85;;;19.70;99.90;;;;;;5096340;28;20056;-66
2021/08/18 10:55:02;;;;;;;3.70;1.70;;;19.80;99.90;;;;;;5090881;28;20055;-66
2021/08/18 10:57:51;;;;;;;3.42;1.63;;;19.80;99.90;;;;;;5091893;28;20071;-66
2021/08/18 11:00:42;;;;;;;3.03;1.70;;;19.90;99.90;;;;;;5097218;28;20047;-66
2021/08/18 11:03:26;;;;;;;6.55;1.98;;;20.00;99.90;;;;;;5093678;28;20032;-66
2021/08/18 11:05:53;;;;;;;3.17;1.50;;;20.10;99.90;;;;;;5092371;28;20468;-66
2021/08/18 11:08:43;;;;;;;3.65;1.60;;;20.40;99.90;;;;;;5095436;28;20032;-66
2021/08/18 11:11:10;;;;;;;4.43;1.55;;;20.20;99.90;;;;;;5093270;28;20402;-66
2021/08/18 11:13:47;;;;;;;3.80;1.45;;;20.20;99.90;;;;;;5091569;28;20040;-66
2021/08/18 11:16:24;;;;;;;16.88;2.55;;;20.30;99.90;;;;;;5091572;28;20123;-66
2021/08/18 11:19:11;;;;;;;2.33;1.70;;;20.40;99.90;;;;;;5095771;28;20066;-66
2021/08/18 11:21:41;;;;;;;3.30;1.70;;;20.50;99.90;;;;;;5097153;28;20036;-66
2021/08/18 11:24:18;;;;;;;3.03;1.63;;;20.60;99.90;;;;;;5092524;28;20043;-66
2021/08/18 11:26:46;;;;;;;2.60;1.77;;;20.70;99.90;;;;;;5093804;28;20032;-66
2021/08/18 11:29:20;;;;;;;5.35;1.60;;;20.80;99.90;;;;;;5096153;28;20121;-66
2021/08/18 11:31:48;;;;;;;1.80;1.23;;;20.80;99.90;;;;;;5090272;28;20051;-66
2021/08/18 11:34:30;;;;;;;5.05;2.00;;;20.90;99.90;;;;;;5094178;28;20039;-66
2021/08/18 11:36:58;;;;;;;2.63;1.70;;;20.90;99.90;;;;;;5094775;28;20032;-66
2021/08/18 11:39:24;;;;;;;4.60;1.77;;;21.10;99.90;;;;;;5096967;28;20036;-66
2021/08/18 11:41:50;;;;;;;4.68;1.85;;;21.10;99.90;;;;;;5097364;28;20486;-66
2021/08/18 11:44:25;;;;;;;2.80;1.40;;;21.10;99.90;;;;;;5098882;28;20035;-66
2021/08/18 11:46:51;;;;;;;;;;;21.10;99.90;;;;;;5102468;28;20111;-66
2021/08/18 11:49:17;;;;;;;;;;;21.10;99.90;;;;;;5100084;28;19922;-66
2021/08/18 11:51:46;;;;;;;;;;;21.00;99.90;;;;;;5099431;28;19920;-66
2021/08/18 11:54:12;;;;;;;6.63;1.27;;;21.00;99.90;;;;;;5097865;28;20376;-66
2021/08/18 11:56:38;;;;;;;4.45;1.45;;;21.00;99.90;;;;;;5097462;28;20028;-66
2021/08/18 11:59:04;;;;;;;3.53;2.05;;;21.00;99.90;;;;;;5096871;28;20044;-66
2021/08/18 12:01:31;;;;;;;3.50;1.48;;;20.90;99.90;;;;;;5096744;28;20036;-66
2021/08/18 12:03:57;;;;;;;4.38;1.77;;;20.90;99.90;;;;;;5099261;28;20036;-66
2021/08/18 12:06:34;;;;;;;3.08;1.75;;;20.80;99.90;;;;;;5096376;28;20040;-66
2021/08/18 12:09:03;;;;;;;2.40;1.52;;;20.90;99.90;;;;;;5094664;28;20040;-66
2021/08/18 12:11:37;;;;;;;6.07;1.50;;;20.90;99.90;;;;;;5099292;28;20393;-66
2021/08/18 12:14:17;;;;;;;5.20;1.50;;;21.00;99.90;;;;;;5098573;28;20051;-66
2021/08/18 12:16:44;;;;;;;6.20;1.65;;;21.10;99.90;;;;;;5098629;28;20405;-66
2021/08/18 12:19:21;;;;;;;2.72;1.25;;;21.10;99.90;;;;;;5097566;28;20256;-66
2021/08/18 12:22:06;;;;;;;3.65;1.42;;;21.10;99.90;;;;;;5097995;28;20047;-66
2021/08/18 12:24:33;;;;;;;7.13;1.92;;;21.00;99.90;;;;;;5097195;28;20050;-66
2021/08/18 12:27:01;;;;;;;2.97;1.50;;;20.90;99.90;;;;;;5096065;28;20040;-66
2021/08/18 12:29:31;;;;;;;3.13;1.58;;;20.90;99.90;;;;;;5094843;28;20079;-66
2021/08/18 12:32:11;;;;;;;4.13;1.80;;;20.80;99.90;;;;;;5094298;28;20113;-66
2021/08/18 12:34:39;;;;;;;2.40;1.20;;;20.80;99.90;;;;;;5095939;28;20032;-66
2021/08/18 12:37:21;;;;;;;2.35;1.40;;;20.90;99.90;;;;;;5098358;28;20047;-66
2021/08/18 12:39:53;;;;;;;5.93;1.40;;;20.90;99.90;;;;;;5097567;28;20493;-66
2021/08/18 12:42:22;;;;;;;2.30;1.52;;;20.80;99.90;;;;;;5130276;27;20075;-66
2021/08/18 12:45:00;;;;;;;2.33;1.67;;;20.80;99.90;;;;;;5099981;28;20087;-66
2021/08/18 12:47:30;;;;;;;4.00;1.80;;;20.80;99.90;;;;;;5096314;28;20058;-66
2021/08/18 12:49:56;;;;;;;4.38;1.65;;;20.60;99.90;;;;;;5097469;28;20031;-66
2021/08/18 12:52:22;;;;;;;4.05;1.65;;;20.70;99.90;;;;;;5096846;28;20036;-66